createdAt,value
2023-08-29T00:05:08.631Z,27.92
2023-08-29T00:11:13.020Z,27.90
2023-08-29T00:17:17.666Z,27.89
2023-08-29T00:23:20.452Z,27.86
2023-08-29T00:29:24.048Z,27.82
2023-08-29T00:35:26.290Z,27.79
2023-08-29T00:41:28.644Z,27.71
2023-08-29T00:47:31.030Z,27.61
2023-08-29T00:53:36.627Z,27.60
2023-08-29T00:59:38.923Z,27.60
2023-08-29T01:05:41.110Z,27.57
2023-08-29T01:11:54.431Z,27.53
2023-08-29T01:18:02.677Z,27.50
2023-08-29T01:24:17.604Z,27.44
2023-08-29T01:30:21.939Z,27.39
2023-08-29T01:36:28.225Z,27.32
2023-08-29T01:42:32.736Z,27.15
2023-08-29T01:48:36.052Z,27.05
2023-08-29T01:54:38.309Z,26.85
2023-08-29T02:00:42.554Z,26.84
2023-08-29T02:06:44.814Z,26.77
2023-08-29T02:12:47.481Z,26.62
2023-08-29T02:18:50.128Z,26.45
2023-08-29T02:24:52.856Z,26.40
2023-08-29T02:30:56.481Z,26.24
2023-08-29T02:36:59.539Z,26.10
2023-08-29T02:43:07.278Z,25.98
2023-08-29T02:49:09.527Z,25.78
2023-08-29T02:55:11.992Z,25.70
2023-08-29T03:01:15.253Z,25.69
2023-08-29T03:07:18.439Z,25.65
2023-08-29T03:13:24.264Z,25.63
2023-08-29T03:19:26.780Z,25.49
2023-08-29T03:25:29.291Z,25.49
2023-08-29T03:31:31.510Z,25.56
2023-08-29T03:37:33.958Z,25.51
2023-08-29T03:43:37.400Z,25.50
2023-08-29T03:49:39.676Z,25.53
2023-08-29T03:55:44.251Z,25.63
2023-08-29T04:02:10.905Z,25.75
2023-08-29T04:08:13.796Z,25.80
2023-08-29T04:14:17.592Z,25.85
2023-08-29T04:20:23.233Z,25.92
2023-08-29T04:26:31.662Z,25.93
2023-08-29T04:32:38.790Z,26.08
2023-08-29T04:38:43.493Z,26.13
2023-08-29T04:44:48.160Z,26.25
2023-08-29T04:50:50.739Z,26.37
2023-08-29T04:56:53.164Z,26.52
2023-08-29T05:02:56.536Z,26.66
2023-08-29T05:08:59.072Z,26.78
2023-08-29T05:15:01.470Z,26.93
2023-08-29T05:21:06.327Z,27.17
2023-08-29T05:27:08.958Z,27.26
2023-08-29T05:33:11.863Z,27.38
2023-08-29T05:39:14.734Z,27.65
2023-08-29T05:45:18.554Z,27.89
2023-08-29T05:51:22.344Z,28.00
2023-08-29T05:57:24.763Z,28.27
2023-08-29T06:03:29.397Z,28.53
2023-08-29T06:09:34.562Z,28.89
2023-08-29T06:15:39.219Z,28.95
2023-08-29T06:21:42.331Z,29.30
2023-08-29T06:27:49.670Z,29.50
2023-08-29T06:33:51.891Z,29.94
2023-08-29T06:39:54.149Z,30.29
2023-08-29T06:45:59.805Z,30.66
2023-08-29T06:52:02.529Z,30.93
2023-08-29T06:58:09.545Z,31.29
2023-08-29T07:04:15.173Z,31.76
2023-08-29T07:10:17.956Z,32.00
2023-08-29T07:16:20.869Z,32.36
2023-08-29T07:22:24.876Z,32.66
2023-08-29T07:28:27.167Z,33.10
2023-08-29T07:34:30.262Z,33.28
2023-08-29T07:40:35.085Z,33.64
2023-08-29T07:46:37.341Z,33.92
2023-08-29T07:52:42.148Z,33.96
2023-08-29T07:58:44.637Z,34.43
2023-08-29T08:04:47.347Z,34.62
2023-08-29T08:10:49.969Z,34.87
2023-08-29T08:16:52.231Z,35.08
2023-08-29T08:22:54.978Z,35.32
2023-08-29T08:28:59.654Z,35.41
2023-08-29T08:35:02.342Z,35.39
2023-08-29T08:41:05.426Z,35.53
2023-08-29T08:47:08.758Z,35.71
2023-08-29T08:53:13.223Z,35.57
2023-08-29T08:59:19.921Z,35.71
2023-08-29T09:06:31.998Z,36.06
2023-08-29T09:12:34.426Z,36.10
2023-08-29T09:18:43.950Z,36.29
2023-08-29T09:24:46.102Z,36.48
2023-08-29T09:30:50.577Z,36.34
2023-08-29T09:36:53.437Z,36.44
2023-08-29T09:43:02.980Z,36.49
2023-08-29T09:49:06.151Z,36.75
2023-08-29T09:55:11.559Z,36.53
2023-08-29T10:01:15.156Z,36.75
2023-08-29T10:07:21.913Z,37.10
2023-08-29T10:13:25.474Z,37.28
2023-08-29T10:19:30.103Z,37.37
2023-08-29T10:25:33.173Z,37.39
2023-08-29T10:31:38.548Z,37.40
2023-08-29T10:37:44.407Z,37.74
2023-08-29T10:43:48.881Z,37.75
2023-08-29T10:50:05.111Z,37.50
2023-08-29T10:56:09.388Z,37.83
2023-08-29T11:02:25.515Z,37.99
2023-08-29T11:08:28.934Z,38.01
2023-08-29T11:14:57.231Z,37.23
2023-08-29T11:21:06.082Z,37.42
2023-08-29T11:27:10.814Z,37.52
2023-08-29T11:33:13.792Z,37.78
2023-08-29T11:39:19.176Z,38.05
2023-08-29T11:45:44.507Z,38.47
2023-08-29T11:51:49.805Z,38.67
2023-08-29T11:57:54.391Z,38.67
2023-08-29T12:03:56.649Z,38.90
2023-08-29T12:10:07.840Z,38.69
2023-08-29T12:16:18.035Z,38.88
2023-08-29T12:22:31.777Z,38.83
2023-08-29T12:28:33.951Z,38.26
2023-08-29T12:34:36.312Z,38.61
2023-08-29T12:40:41.052Z,38.69
2023-08-29T12:46:46.350Z,38.78
2023-08-29T12:52:52.606Z,38.84
2023-08-29T12:58:57.115Z,38.65
2023-08-29T13:04:59.592Z,38.72
2023-08-29T13:11:06.873Z,38.56
2023-08-29T13:17:14.870Z,38.66
2023-08-29T13:23:20.952Z,38.78
2023-08-29T13:29:24.917Z,39.17
2023-08-29T13:35:28.330Z,39.07
2023-08-29T13:41:31.706Z,39.20
2023-08-29T13:47:34.009Z,39.34
2023-08-29T13:53:36.647Z,39.49
2023-08-29T13:59:40.704Z,39.66
2023-08-29T14:05:42.848Z,38.53
2023-08-29T14:11:46.496Z,37.28
2023-08-29T14:17:52.985Z,36.31
2023-08-29T14:23:56.277Z,35.60
2023-08-29T14:30:01.217Z,35.97
2023-08-29T14:36:06.389Z,35.88
2023-08-29T14:42:09.239Z,35.80
2023-08-29T14:48:16.766Z,35.84
2023-08-29T14:54:19.075Z,35.64
2023-08-29T15:00:23.408Z,35.67
2023-08-29T15:06:27.013Z,35.80
2023-08-29T15:12:29.328Z,35.52
2023-08-29T15:18:31.781Z,35.58
2023-08-29T15:24:34.241Z,35.10
2023-08-29T15:30:36.866Z,34.91
2023-08-29T15:36:40.301Z,34.65
2023-08-29T15:42:45.323Z,34.42
2023-08-29T15:48:47.536Z,34.01
2023-08-29T15:54:52.688Z,33.93
2023-08-29T16:00:57.597Z,33.76
2023-08-29T16:07:01.284Z,33.68
2023-08-29T16:13:05.656Z,33.68
2023-08-29T16:19:08.550Z,33.64
2023-08-29T16:25:13.080Z,33.55
2023-08-29T16:31:16.581Z,33.38
2023-08-29T16:37:20.297Z,33.19
2023-08-29T16:43:23.252Z,33.06
2023-08-29T16:49:28.460Z,32.95
2023-08-29T16:55:33.830Z,32.85
2023-08-29T17:01:36.074Z,32.75
2023-08-29T17:07:40.269Z,32.68
2023-08-29T17:13:42.959Z,32.53
2023-08-29T17:19:47.779Z,32.43
2023-08-29T17:25:50.316Z,32.42
2023-08-29T17:31:53.008Z,32.43
2023-08-29T17:37:55.249Z,32.45
2023-08-29T17:43:57.531Z,32.51
2023-08-29T17:50:00.228Z,32.60
2023-08-29T17:56:02.533Z,32.55
2023-08-29T18:02:06.185Z,32.52
2023-08-29T18:08:09.430Z,32.37
2023-08-29T18:14:13.301Z,32.35
2023-08-29T18:20:16.185Z,32.27
2023-08-29T18:26:18.518Z,32.25
2023-08-29T18:32:20.929Z,32.22
2023-08-29T18:38:24.830Z,32.14
2023-08-29T18:44:27.022Z,32.08
2023-08-29T18:50:29.658Z,32.00
2023-08-29T18:56:34.219Z,31.84
2023-08-29T19:02:36.422Z,31.83
2023-08-29T19:08:38.635Z,31.73
2023-08-29T19:14:41.244Z,31.70
2023-08-29T19:20:43.530Z,31.64
2023-08-29T19:26:48.587Z,31.56
2023-08-29T19:32:51.038Z,31.43
2023-08-29T19:39:05.012Z,31.28
2023-08-29T19:45:15.677Z,31.15
2023-08-29T19:51:18.782Z,31.09
2023-08-29T19:57:21.242Z,30.98
2023-08-29T20:03:23.856Z,30.92
2023-08-29T20:09:27.154Z,30.83
2023-08-29T20:15:30.663Z,30.78
2023-08-29T20:21:34.256Z,30.65
2023-08-29T20:27:36.440Z,30.57
2023-08-29T20:33:38.648Z,30.52
2023-08-29T20:39:42.914Z,30.43
2023-08-29T20:45:46.835Z,30.41
2023-08-29T20:51:50.868Z,30.38
2023-08-29T20:57:57.460Z,30.29
2023-08-29T21:04:00.263Z,30.14
2023-08-29T21:10:10.728Z,30.09
2023-08-29T21:16:18.224Z,29.99
2023-08-29T21:22:20.610Z,29.94
2023-08-29T21:28:27.910Z,29.89
2023-08-29T21:34:31.578Z,29.82
2023-08-29T21:40:44.843Z,29.73
2023-08-29T21:46:47.050Z,29.68
2023-08-29T21:52:49.964Z,29.55
2023-08-29T21:58:54.822Z,29.51
2023-08-29T22:05:00.268Z,29.47
2023-08-29T22:11:03.279Z,29.41
2023-08-29T22:17:07.191Z,29.40
2023-08-29T22:23:10.590Z,29.38
2023-08-29T22:29:14.189Z,29.35
2023-08-29T22:35:18.442Z,29.33
2023-08-29T22:41:33.546Z,29.27
2023-08-29T22:47:38.941Z,29.26
2023-08-29T22:53:41.140Z,29.26
2023-08-29T22:59:43.896Z,29.25
2023-08-29T23:05:46.347Z,29.21
2023-08-29T23:11:49.061Z,29.20
2023-08-29T23:17:52.394Z,29.18
2023-08-29T23:23:56.217Z,29.11
2023-08-29T23:29:59.592Z,29.03
2023-08-29T23:36:04.033Z,28.93
2023-08-29T23:42:08.272Z,28.89
2023-08-29T23:48:12.062Z,28.79
2023-08-29T23:54:16.139Z,28.77
